createdAt,value
2018-07-25T00:00:32.993Z,24.90
2018-07-25T00:03:01.738Z,24.90
2018-07-25T00:05:30.466Z,24.90
2018-07-25T00:10:32.840Z,24.90
2018-07-25T00:13:01.517Z,24.80
2018-07-25T00:15:30.323Z,24.90
2018-07-25T00:20:27.486Z,24.80
2018-07-25T00:22:56.250Z,24.80
2018-07-25T00:25:25.120Z,24.80
2018-07-25T00:27:53.880Z,24.80
2018-07-25T00:30:22.726Z,24.70
2018-07-25T00:32:51.444Z,24.70
2018-07-25T00:35:20.199Z,24.70
2018-07-25T00:37:48.945Z,24.70
2018-07-25T00:40:17.681Z,24.70
2018-07-25T00:42:46.593Z,24.60
2018-07-25T00:45:15.323Z,24.60
2018-07-25T00:47:44.075Z,24.50
2018-07-25T00:50:12.858Z,24.50
2018-07-25T00:52:41.599Z,24.50
2018-07-25T00:57:38.758Z,24.40
2018-07-25T01:00:07.532Z,24.40
2018-07-25T01:02:36.220Z,24.40
2018-07-25T01:05:05.192Z,24.40
2018-07-25T01:07:33.960Z,24.40
2018-07-25T01:10:02.747Z,24.40
2018-07-25T01:12:31.466Z,24.40
2018-07-25T01:15:00.221Z,24.40
2018-07-25T01:17:28.901Z,24.40
2018-07-25T01:19:57.629Z,24.30
2018-07-25T01:22:26.327Z,24.30
2018-07-25T01:24:55.073Z,24.30
2018-07-25T01:27:23.797Z,24.30
2018-07-25T01:29:52.552Z,24.30
2018-07-25T01:32:21.345Z,24.30
2018-07-25T01:34:50.066Z,24.30
2018-07-25T01:37:18.807Z,24.30
2018-07-25T01:39:47.558Z,24.20
2018-07-25T01:42:16.340Z,24.20
2018-07-25T01:44:45.142Z,24.20
2018-07-25T01:47:13.860Z,24.20
2018-07-25T01:49:42.740Z,24.20
2018-07-25T01:52:11.514Z,24.20
2018-07-25T01:54:40.259Z,24.10
2018-07-25T01:57:09.016Z,24.10
2018-07-25T01:59:37.741Z,24.10
2018-07-25T02:02:06.555Z,24.00
2018-07-25T02:04:35.391Z,24.00
2018-07-25T02:07:04.195Z,24.00
2018-07-25T02:09:32.963Z,23.90
2018-07-25T02:12:01.795Z,23.90
2018-07-25T02:14:30.577Z,23.80
2018-07-25T02:17:00.064Z,23.80
2018-07-25T02:19:28.805Z,23.80
2018-07-25T02:21:57.514Z,23.80
2018-07-25T02:24:26.339Z,23.80
2018-07-25T02:26:55.156Z,23.70
2018-07-25T02:29:23.874Z,23.70
2018-07-25T02:31:52.548Z,23.70
2018-07-25T02:34:22.350Z,23.70
2018-07-25T02:36:52.427Z,23.70
2018-07-25T02:39:21.234Z,23.70
2018-07-25T02:41:49.963Z,23.70
2018-07-25T02:44:18.693Z,23.60
2018-07-25T02:46:47.407Z,23.60
2018-07-25T02:49:16.173Z,23.60
2018-07-25T02:51:45.012Z,23.60
2018-07-25T02:54:13.765Z,23.60
2018-07-25T02:56:42.501Z,23.50
2018-07-25T02:59:11.378Z,23.50
2018-07-25T03:01:40.040Z,23.60
2018-07-25T03:04:08.903Z,23.60
2018-07-25T03:06:37.678Z,23.60
2018-07-25T03:09:08.364Z,23.60
2018-07-25T03:11:37.317Z,23.60
2018-07-25T03:14:06.150Z,23.60
2018-07-25T03:16:35.005Z,23.60
2018-07-25T03:19:03.726Z,23.60
2018-07-25T03:24:00.745Z,23.60
2018-07-25T03:26:29.450Z,23.60
2018-07-25T03:28:58.202Z,23.60
2018-07-25T03:31:27.028Z,23.50
2018-07-25T03:33:55.677Z,23.50
2018-07-25T03:36:24.467Z,23.40
2018-07-25T03:38:53.196Z,23.40
2018-07-25T03:41:21.958Z,23.40
2018-07-25T03:43:50.722Z,23.40
2018-07-25T03:46:19.458Z,23.40
2018-07-25T03:48:48.224Z,23.40
2018-07-25T03:51:16.957Z,23.40
2018-07-25T03:53:45.969Z,23.40
2018-07-25T03:56:14.799Z,23.40
2018-07-25T03:58:43.541Z,23.30
2018-07-25T04:01:12.248Z,23.30
2018-07-25T04:03:40.966Z,23.30
2018-07-25T04:06:09.777Z,23.30
2018-07-25T04:08:38.526Z,23.30
2018-07-25T04:11:07.332Z,23.30
2018-07-25T04:13:36.111Z,23.40
2018-07-25T04:16:04.930Z,23.40
2018-07-25T04:21:02.091Z,23.40
2018-07-25T04:23:30.842Z,23.50
2018-07-25T04:25:59.600Z,23.50
2018-07-25T04:28:28.327Z,23.60
2018-07-25T04:30:57.159Z,23.60
2018-07-25T04:33:25.873Z,23.70
2018-07-25T04:35:54.586Z,23.80
2018-07-25T04:38:23.329Z,23.80
2018-07-25T04:40:52.166Z,23.90
2018-07-25T04:43:20.927Z,23.80
2018-07-25T04:48:18.038Z,24.00
2018-07-25T04:50:46.806Z,24.00
2018-07-25T04:55:43.905Z,23.90
2018-07-25T04:58:12.584Z,24.00
2018-07-25T05:00:41.301Z,24.00
2018-07-25T05:03:10.125Z,24.00
2018-07-25T05:05:38.883Z,24.10
2018-07-25T05:08:07.627Z,24.20
2018-07-25T05:10:36.385Z,24.30
2018-07-25T05:13:05.155Z,24.30
2018-07-25T05:15:33.881Z,24.30
2018-07-25T05:18:02.742Z,24.40
2018-07-25T05:20:31.469Z,24.40
2018-07-25T05:23:00.201Z,24.50
2018-07-25T05:25:28.982Z,24.60
2018-07-25T05:27:57.776Z,24.60
2018-07-25T05:30:26.564Z,24.60
2018-07-25T05:32:55.314Z,24.60
2018-07-25T05:35:24.018Z,24.80
2018-07-25T05:37:52.814Z,24.80
2018-07-25T05:40:21.575Z,24.80
2018-07-25T05:42:50.347Z,24.80
2018-07-25T05:45:18.967Z,24.80
2018-07-25T05:47:47.899Z,24.80
2018-07-25T05:50:16.717Z,24.80
2018-07-25T05:52:45.388Z,24.90
2018-07-25T05:55:14.045Z,25.00
2018-07-25T05:57:42.846Z,25.10
2018-07-25T06:00:11.614Z,25.30
2018-07-25T06:02:40.389Z,25.50
2018-07-25T06:05:09.042Z,25.60
2018-07-25T06:07:37.805Z,25.70
2018-07-25T06:10:06.764Z,25.80
2018-07-25T06:12:35.439Z,25.70
2018-07-25T06:15:04.681Z,25.70
2018-07-25T06:17:33.453Z,25.70
2018-07-25T06:20:02.181Z,25.70
2018-07-25T06:22:30.999Z,25.70
2018-07-25T06:24:59.711Z,25.80
2018-07-25T06:27:28.448Z,25.80
2018-07-25T06:29:57.207Z,25.80
2018-07-25T06:32:25.963Z,25.80
2018-07-25T06:34:54.698Z,25.80
2018-07-25T06:37:23.348Z,25.90
2018-07-25T06:39:52.108Z,26.10
2018-07-25T06:42:20.826Z,26.20
2018-07-25T06:44:49.648Z,26.30
2018-07-25T06:47:18.347Z,26.40
2018-07-25T06:49:47.072Z,26.50
2018-07-25T06:52:15.786Z,26.50
2018-07-25T06:54:44.522Z,26.60
2018-07-25T06:57:13.386Z,26.60
2018-07-25T06:59:41.993Z,26.60
2018-07-25T07:02:11.901Z,26.60
2018-07-25T07:04:40.651Z,26.60
2018-07-25T07:07:09.505Z,26.60
2018-07-25T07:09:38.190Z,26.80
2018-07-25T07:12:07.101Z,26.90
2018-07-25T07:14:35.839Z,27.10
2018-07-25T07:17:04.540Z,27.30
2018-07-25T07:22:01.540Z,27.50
2018-07-25T07:24:30.234Z,27.60
2018-07-25T07:26:58.924Z,27.80
2018-07-25T07:29:27.564Z,27.90
2018-07-25T07:31:56.420Z,28.10
2018-07-25T07:34:25.094Z,28.20
2018-07-25T07:36:53.917Z,28.30
2018-07-25T07:39:22.666Z,28.40
2018-07-25T07:41:51.363Z,28.20
2018-07-25T07:44:20.112Z,28.10
2018-07-25T07:46:48.829Z,28.00
2018-07-25T07:49:17.507Z,28.00
2018-07-25T07:51:46.183Z,27.90
2018-07-25T07:54:14.953Z,27.80
2018-07-25T07:56:43.681Z,27.80
2018-07-25T07:59:12.382Z,27.90
2018-07-25T08:01:41.166Z,28.00
2018-07-25T08:04:09.928Z,28.20
2018-07-25T08:06:38.807Z,28.30
2018-07-25T08:09:10.432Z,28.40
2018-07-25T08:11:39.359Z,28.40
2018-07-25T08:14:08.094Z,28.40
2018-07-25T08:16:36.763Z,28.50
2018-07-25T08:19:05.565Z,28.60
2018-07-25T08:21:34.265Z,28.70
2018-07-25T08:24:03.049Z,28.90
2018-07-25T08:26:31.788Z,28.90
2018-07-25T08:29:00.565Z,29.00
2018-07-25T08:31:29.313Z,29.00
2018-07-25T08:33:58.038Z,29.20
2018-07-25T08:36:26.833Z,29.40
2018-07-25T08:38:55.612Z,29.50
2018-07-25T08:41:24.350Z,29.70
2018-07-25T08:43:53.143Z,29.80
2018-07-25T08:46:22.062Z,29.90
2018-07-25T08:48:50.792Z,30.10
2018-07-25T08:51:19.566Z,30.20
2018-07-25T08:53:48.417Z,30.20
2018-07-25T08:56:17.209Z,30.10
2018-07-25T08:58:45.938Z,29.90
2018-07-25T09:03:43.034Z,29.40
2018-07-25T09:06:11.864Z,29.20
2018-07-25T09:08:40.737Z,29.50
2018-07-25T09:11:09.492Z,29.40
2018-07-25T09:13:38.232Z,29.40
2018-07-25T09:16:06.832Z,29.60
2018-07-25T09:18:35.534Z,29.80
2018-07-25T09:21:04.311Z,29.90
2018-07-25T09:23:32.982Z,30.20
2018-07-25T09:26:01.771Z,30.40
2018-07-25T09:28:30.601Z,30.60
2018-07-25T09:30:59.322Z,30.50
2018-07-25T09:33:28.164Z,30.40
2018-07-25T09:35:56.908Z,30.60
2018-07-25T09:38:25.676Z,30.60
2018-07-25T09:43:22.777Z,30.90
2018-07-25T09:45:51.515Z,31.20
2018-07-25T09:48:20.325Z,31.40
2018-07-25T09:50:49.013Z,31.50
2018-07-25T09:53:17.770Z,31.40
2018-07-25T09:55:46.506Z,31.40
2018-07-25T09:58:15.290Z,30.90
2018-07-25T10:00:48.893Z,30.70
2018-07-25T10:03:18.258Z,30.70
2018-07-25T10:05:47.175Z,30.60
2018-07-25T10:08:16.773Z,30.50
2018-07-25T10:10:45.906Z,30.20
2018-07-25T10:13:14.720Z,30.20
2018-07-25T10:15:43.503Z,30.10
2018-07-25T10:18:12.332Z,30.00
2018-07-25T10:20:41.117Z,30.40
2018-07-25T10:23:09.846Z,30.60
2018-07-25T10:25:38.677Z,31.00
2018-07-25T10:28:07.785Z,31.10
2018-07-25T10:30:36.626Z,31.40
2018-07-25T10:33:05.767Z,31.30
2018-07-25T10:35:34.389Z,31.30
2018-07-25T10:38:03.279Z,31.60
2018-07-25T10:40:31.977Z,31.90
2018-07-25T10:43:00.695Z,32.00
2018-07-25T10:45:29.427Z,32.20
2018-07-25T10:47:58.088Z,32.20
2018-07-25T10:50:26.843Z,32.20
2018-07-25T10:52:55.589Z,32.40
2018-07-25T10:55:24.386Z,32.60
2018-07-25T10:57:53.439Z,32.80
2018-07-25T11:00:22.326Z,32.60
2018-07-25T11:02:51.067Z,32.70
2018-07-25T11:05:19.900Z,32.60
2018-07-25T11:07:48.644Z,32.60
2018-07-25T11:10:17.392Z,32.60
2018-07-25T11:12:46.180Z,32.50
2018-07-25T11:15:14.898Z,32.80
2018-07-25T11:17:43.668Z,33.20
2018-07-25T11:20:12.587Z,33.60
2018-07-25T11:22:41.377Z,33.70
2018-07-25T11:25:10.159Z,33.60
2018-07-25T11:27:38.899Z,33.70
2018-07-25T11:30:07.739Z,34.00
2018-07-25T11:32:36.663Z,34.20
2018-07-25T11:35:05.576Z,34.30
2018-07-25T11:37:34.255Z,34.30
2018-07-25T11:40:02.935Z,34.20
2018-07-25T11:45:00.168Z,34.30
2018-07-25T11:47:28.873Z,34.20
2018-07-25T11:49:57.722Z,34.30
2018-07-25T11:52:26.482Z,34.30
2018-07-25T11:54:55.219Z,34.20
2018-07-25T11:57:24.906Z,34.50
2018-07-25T11:59:53.581Z,34.80
2018-07-25T12:02:22.738Z,34.60
2018-07-25T12:04:51.450Z,34.70
2018-07-25T12:07:20.205Z,34.80
2018-07-25T12:09:48.926Z,34.90
2018-07-25T12:12:17.714Z,34.70
2018-07-25T12:14:46.394Z,35.00
2018-07-25T12:17:16.117Z,35.10
2018-07-25T12:19:44.905Z,34.90
2018-07-25T12:22:13.642Z,34.90
2018-07-25T12:24:42.413Z,34.60
2018-07-25T12:27:11.096Z,34.60
2018-07-25T12:29:39.890Z,35.10
2018-07-25T12:32:08.662Z,35.30
2018-07-25T12:34:37.377Z,35.30
2018-07-25T12:37:06.202Z,35.40
2018-07-25T12:39:34.996Z,35.80
2018-07-25T12:42:03.832Z,36.10
2018-07-25T12:44:32.581Z,36.40
2018-07-25T12:47:01.362Z,36.30
2018-07-25T12:49:30.128Z,36.40
2018-07-25T12:51:58.886Z,36.20
2018-07-25T12:54:27.704Z,36.00
2018-07-25T12:56:56.499Z,36.20
2018-07-25T12:59:25.336Z,36.20
2018-07-25T13:01:54.140Z,36.10
2018-07-25T13:04:22.852Z,36.00
2018-07-25T13:06:51.609Z,35.90
2018-07-25T13:09:20.355Z,36.20
2018-07-25T13:11:49.111Z,36.20
2018-07-25T13:14:17.853Z,36.20
2018-07-25T13:16:46.654Z,36.40
2018-07-25T13:19:15.436Z,36.60
2018-07-25T13:21:44.241Z,36.40
2018-07-25T13:24:13.069Z,36.20
2018-07-25T13:26:42.002Z,36.40
2018-07-25T13:29:10.792Z,36.20
2018-07-25T13:31:39.647Z,36.10
2018-07-25T13:34:08.544Z,36.30
2018-07-25T13:36:37.914Z,36.60
2018-07-25T13:39:08.274Z,36.80
2018-07-25T13:41:37.057Z,36.50
2018-07-25T13:44:05.893Z,36.60
2018-07-25T13:46:34.625Z,36.60
2018-07-25T13:49:03.369Z,36.60
2018-07-25T13:51:32.125Z,36.80
2018-07-25T13:54:00.941Z,37.00
2018-07-25T13:56:29.799Z,36.90
2018-07-25T13:58:58.526Z,37.10
2018-07-25T14:01:27.267Z,37.20
2018-07-25T14:03:56.036Z,37.20
2018-07-25T14:06:24.866Z,37.20
2018-07-25T14:08:53.713Z,36.60
2018-07-25T14:11:22.477Z,36.40
2018-07-25T14:13:51.206Z,36.50
2018-07-25T14:16:19.978Z,36.80
2018-07-25T14:18:48.782Z,36.80
2018-07-25T14:21:17.654Z,37.20
2018-07-25T14:23:46.541Z,36.60
2018-07-25T14:28:43.831Z,36.60
2018-07-25T14:31:12.489Z,36.70
2018-07-25T14:33:41.279Z,36.90
2018-07-25T14:36:10.189Z,36.80
2018-07-25T14:38:38.885Z,36.80
2018-07-25T14:41:07.720Z,36.80
2018-07-25T14:43:36.511Z,36.40
2018-07-25T14:46:05.693Z,36.20
2018-07-25T14:48:34.493Z,35.80
2018-07-25T14:51:03.336Z,35.50
2018-07-25T14:53:32.036Z,35.00
2018-07-25T14:56:00.880Z,34.80
2018-07-25T14:58:29.700Z,34.70
2018-07-25T15:00:58.452Z,34.90
2018-07-25T15:03:27.136Z,34.90
2018-07-25T15:08:24.205Z,35.40
2018-07-25T15:10:52.941Z,35.70
2018-07-25T15:13:21.735Z,35.70
2018-07-25T15:15:50.461Z,36.00
2018-07-25T15:18:19.227Z,36.40
2018-07-25T15:20:47.960Z,36.40
2018-07-25T15:24:19.791Z,36.60
2018-07-25T15:26:48.506Z,36.80
2018-07-25T15:29:17.323Z,36.90
2018-07-25T15:34:14.932Z,36.90
2018-07-25T15:36:49.916Z,36.60
2018-07-25T15:39:21.004Z,36.60
2018-07-25T15:41:50.491Z,36.40
2018-07-25T15:44:20.240Z,36.30
2018-07-25T15:46:49.074Z,36.20
2018-07-25T15:51:46.482Z,36.50
2018-07-25T15:54:15.510Z,36.50
2018-07-25T15:56:44.487Z,36.70
2018-07-25T15:59:13.209Z,36.10
2018-07-25T16:01:42.016Z,36.30
2018-07-25T16:04:10.767Z,36.60
2018-07-25T16:06:39.584Z,36.90
2018-07-25T16:09:09.681Z,36.90
2018-07-25T16:11:38.783Z,37.10
2018-07-25T16:14:07.595Z,37.00
2018-07-25T16:16:36.399Z,36.60
2018-07-25T16:19:05.441Z,36.00
2018-07-25T16:21:34.202Z,35.40
2018-07-25T16:26:31.450Z,35.00
2018-07-25T16:29:01.742Z,34.50
2018-07-25T16:31:30.474Z,34.30
2018-07-25T16:33:59.226Z,34.30
2018-07-25T16:36:28.081Z,34.30
2018-07-25T16:38:56.859Z,34.20
2018-07-25T16:41:25.628Z,34.20
2018-07-25T16:43:54.403Z,34.30
2018-07-25T16:46:23.351Z,34.20
2018-07-25T16:48:52.139Z,33.90
2018-07-25T16:51:20.963Z,33.80
2018-07-25T16:53:49.755Z,33.80
2018-07-25T16:56:18.493Z,33.80
2018-07-25T16:58:47.255Z,33.60
2018-07-25T17:01:15.862Z,33.70
2018-07-25T17:03:44.666Z,33.70
2018-07-25T17:06:13.433Z,33.50
2018-07-25T17:08:42.240Z,33.20
2018-07-25T17:11:11.027Z,33.20
2018-07-25T17:13:39.783Z,33.10
2018-07-25T17:16:08.882Z,33.10
2018-07-25T17:18:37.711Z,33.20
2018-07-25T17:21:06.932Z,33.20
2018-07-25T17:23:35.698Z,33.20
2018-07-25T17:26:04.464Z,33.20
2018-07-25T17:28:33.217Z,33.20
2018-07-25T17:31:01.966Z,33.00
2018-07-25T17:33:30.698Z,33.10
2018-07-25T17:35:59.490Z,33.00
2018-07-25T17:40:56.696Z,32.80
2018-07-25T17:45:53.620Z,32.70
2018-07-25T17:48:22.443Z,32.70
2018-07-25T17:50:51.219Z,32.60
2018-07-25T17:53:19.989Z,32.50
2018-07-25T17:55:48.719Z,32.50
2018-07-25T17:58:17.479Z,32.60
2018-07-25T18:00:46.307Z,32.60
2018-07-25T18:03:15.067Z,32.40
2018-07-25T18:05:43.706Z,32.40
2018-07-25T18:08:12.470Z,32.40
2018-07-25T18:10:41.254Z,32.30
2018-07-25T18:13:15.296Z,32.20
2018-07-25T18:15:44.140Z,32.20
2018-07-25T18:18:13.014Z,32.10
2018-07-25T18:20:41.681Z,32.10
2018-07-25T18:23:10.531Z,32.00
2018-07-25T18:25:39.311Z,32.00
2018-07-25T18:28:08.199Z,31.90
2018-07-25T18:30:36.990Z,31.80
2018-07-25T18:33:06.127Z,31.80
2018-07-25T18:35:35.062Z,31.70
2018-07-25T18:38:03.856Z,31.60
2018-07-25T18:40:32.923Z,31.50
2018-07-25T18:43:01.746Z,31.50
2018-07-25T18:45:30.644Z,31.40
2018-07-25T18:47:59.436Z,31.30
2018-07-25T18:50:28.266Z,31.30
2018-07-25T18:52:57.310Z,31.10
2018-07-25T18:55:26.200Z,31.10
2018-07-25T18:57:54.985Z,31.00
2018-07-25T19:00:23.936Z,30.90
2018-07-25T19:05:25.493Z,30.90
2018-07-25T19:07:54.404Z,30.70
2018-07-25T19:10:23.103Z,30.60
2018-07-25T19:12:52.105Z,30.60
2018-07-25T19:15:26.484Z,30.50
2018-07-25T19:17:55.261Z,30.40
2018-07-25T19:20:24.650Z,30.30
2018-07-25T19:22:53.821Z,30.20
2018-07-25T19:27:52.377Z,30.00
2018-07-25T19:30:21.544Z,29.80
2018-07-25T19:32:51.169Z,29.70
2018-07-25T19:35:20.101Z,29.70
2018-07-25T19:37:48.914Z,29.60
2018-07-25T19:40:17.662Z,29.50
2018-07-25T19:42:46.648Z,29.40
2018-07-25T19:45:15.457Z,29.30
2018-07-25T19:47:44.132Z,29.20
2018-07-25T19:50:13.071Z,29.10
2018-07-25T19:55:10.409Z,28.90
2018-07-25T19:57:39.487Z,28.80
2018-07-25T20:00:08.319Z,28.70
2018-07-25T20:02:37.120Z,28.60
2018-07-25T20:05:07.524Z,28.50
2018-07-25T20:07:36.625Z,28.40
2018-07-25T20:10:05.875Z,28.30
2018-07-25T20:12:35.090Z,28.20
2018-07-25T20:15:09.376Z,28.20
2018-07-25T20:17:38.194Z,28.10
2018-07-25T20:20:07.538Z,28.10
2018-07-25T20:22:36.327Z,28.10
2018-07-25T20:25:06.211Z,28.00
2018-07-25T20:27:35.339Z,28.00
2018-07-25T20:30:04.690Z,27.90
2018-07-25T20:35:02.072Z,27.60
2018-07-25T20:37:30.811Z,27.60
2018-07-25T20:39:59.707Z,27.60
2018-07-25T20:42:28.614Z,27.50
2018-07-25T20:44:57.402Z,27.50
2018-07-25T20:49:54.501Z,27.30
2018-07-25T20:52:23.358Z,27.30
2018-07-25T20:54:52.053Z,27.20
2018-07-25T20:57:21.045Z,27.10
2018-07-25T20:59:49.833Z,27.00
2018-07-25T21:02:18.800Z,26.90
2018-07-25T21:04:47.567Z,26.90
2018-07-25T21:07:16.330Z,26.90
2018-07-25T21:09:44.998Z,26.80
2018-07-25T21:12:13.712Z,26.80
2018-07-25T21:14:42.428Z,26.70
2018-07-25T21:17:11.503Z,26.60
2018-07-25T21:19:40.190Z,26.60
2018-07-25T21:22:08.856Z,26.50
2018-07-25T21:24:37.544Z,26.40
2018-07-25T21:27:06.397Z,26.40
2018-07-25T21:29:35.127Z,26.40
2018-07-25T21:32:03.891Z,26.40
2018-07-25T21:34:32.620Z,26.30
2018-07-25T21:37:01.347Z,26.30
2018-07-25T21:39:30.076Z,26.20
2018-07-25T21:41:58.858Z,26.10
2018-07-25T21:44:27.580Z,26.00
2018-07-25T21:46:56.333Z,26.00
2018-07-25T21:49:25.116Z,26.00
2018-07-25T21:51:53.844Z,26.00
2018-07-25T21:54:22.566Z,25.90
2018-07-25T21:56:51.266Z,25.80
2018-07-25T21:59:20.031Z,25.80
2018-07-25T22:01:49.300Z,25.80
2018-07-25T22:04:17.975Z,25.80
2018-07-25T22:06:46.747Z,25.80
2018-07-25T22:09:15.516Z,25.80
2018-07-25T22:11:44.200Z,25.70
2018-07-25T22:14:13.014Z,25.70
2018-07-25T22:16:41.694Z,25.60
2018-07-25T22:21:38.770Z,25.60
2018-07-25T22:24:07.604Z,25.60
2018-07-25T22:26:36.352Z,25.60
2018-07-25T22:29:05.116Z,25.50
2018-07-25T22:31:33.773Z,25.50
2018-07-25T22:34:02.631Z,25.50
2018-07-25T22:36:31.367Z,25.50
2018-07-25T22:39:00.008Z,25.50
2018-07-25T22:41:28.691Z,25.50
2018-07-25T22:43:57.392Z,25.50
2018-07-25T22:46:26.168Z,25.40
2018-07-25T22:48:54.861Z,25.40
2018-07-25T22:51:23.627Z,25.30
2018-07-25T22:53:52.281Z,25.30
2018-07-25T22:56:21.003Z,25.20
2018-07-25T22:58:49.680Z,25.10
2018-07-25T23:01:18.443Z,25.00
2018-07-25T23:03:47.191Z,25.00
2018-07-25T23:06:15.989Z,24.90
2018-07-25T23:11:13.112Z,25.00
2018-07-25T23:13:45.976Z,25.00
2018-07-25T23:18:43.849Z,24.80
2018-07-25T23:23:40.987Z,24.80
2018-07-25T23:26:09.743Z,24.70
2018-07-25T23:28:38.465Z,24.70
2018-07-25T23:31:07.239Z,24.70
2018-07-25T23:33:36.027Z,24.70
2018-07-25T23:36:04.669Z,24.70
2018-07-25T23:38:33.437Z,24.70
2018-07-25T23:41:02.197Z,24.70
2018-07-25T23:43:30.885Z,24.70
2018-07-25T23:45:59.757Z,24.70
2018-07-25T23:48:28.525Z,24.70
2018-07-25T23:50:57.329Z,24.60
2018-07-25T23:53:26.065Z,24.70
2018-07-25T23:55:54.835Z,24.60
2018-07-25T23:58:24.145Z,24.60
